sensor_id;sensor_type;location;lat;lon;timestamp;temperature;humidity
64620;DHT22;51029;51.058;13.826;2023-02-03T00:00:50;3.70;99.90
64620;DHT22;51029;51.058;13.826;2023-02-03T00:03:16;3.80;99.90
64620;DHT22;51029;51.058;13.826;2023-02-03T00:05:41;3.70;99.90
64620;DHT22;51029;51.058;13.826;2023-02-03T00:08:08;3.80;99.90
64620;DHT22;51029;51.058;13.826;2023-02-03T00:10:35;3.80;99.90
64620;DHT22;51029;51.058;13.826;2023-02-03T00:13:02;3.80;99.90
64620;DHT22;51029;51.058;13.826;2023-02-03T00:15:28;3.80;99.90
64620;DHT22;51029;51.058;13.826;2023-02-03T00:17:53;3.90;99.90
64620;DHT22;51029;51.058;13.826;2023-02-03T00:20:19;3.90;99.90
64620;DHT22;51029;51.058;13.826;2023-02-03T00:22:44;3.90;99.90
64620;DHT22;51029;51.058;13.826;2023-02-03T00:25:10;3.90;99.90
64620;DHT22;51029;51.058;13.826;2023-02-03T00:27:36;4.00;99.90
64620;DHT22;51029;51.058;13.826;2023-02-03T00:30:02;3.90;99.90
64620;DHT22;51029;51.058;13.826;2023-02-03T00:32:28;3.90;99.90
64620;DHT22;51029;51.058;13.826;2023-02-03T00:34:54;4.00;99.90
64620;DHT22;51029;51.058;13.826;2023-02-03T00:37:19;4.00;99.90
64620;DHT22;51029;51.058;13.826;2023-02-03T00:39:47;4.00;99.90
64620;DHT22;51029;51.058;13.826;2023-02-03T00:42:13;4.00;99.90
64620;DHT22;51029;51.058;13.826;2023-02-03T00:44:38;4.00;99.90
64620;DHT22;51029;51.058;13.826;2023-02-03T00:47:04;4.00;99.90
64620;DHT22;51029;51.058;13.826;2023-02-03T00:49:29;4.10;99.90
64620;DHT22;51029;51.058;13.826;2023-02-03T00:51:55;4.10;99.90
64620;DHT22;51029;51.058;13.826;2023-02-03T00:54:21;4.10;99.90
64620;DHT22;51029;51.058;13.826;2023-02-03T00:56:46;4.10;99.90
64620;DHT22;51029;51.058;13.826;2023-02-03T00:59:12;4.10;99.90
64620;DHT22;51029;51.058;13.826;2023-02-03T01:01:37;4.00;99.90
64620;DHT22;51029;51.058;13.826;2023-02-03T01:04:03;4.00;99.90
64620;DHT22;51029;51.058;13.826;2023-02-03T01:06:29;4.00;99.90
64620;DHT22;51029;51.058;13.826;2023-02-03T01:08:54;4.00;99.90
64620;DHT22;51029;51.058;13.826;2023-02-03T01:11:22;4.10;99.90
64620;DHT22;51029;51.058;13.826;2023-02-03T01:13:49;4.10;99.90
64620;DHT22;51029;51.058;13.826;2023-02-03T01:16:17;4.10;99.90
64620;DHT22;51029;51.058;13.826;2023-02-03T01:18:44;4.10;99.90
64620;DHT22;51029;51.058;13.826;2023-02-03T01:21:14;4.10;99.90
64620;DHT22;51029;51.058;13.826;2023-02-03T01:23:40;4.10;99.90
64620;DHT22;51029;51.058;13.826;2023-02-03T01:26:08;4.10;99.90
64620;DHT22;51029;51.058;13.826;2023-02-03T01:28:34;4.00;99.90
64620;DHT22;51029;51.058;13.826;2023-02-03T01:31:21;4.00;99.90
64620;DHT22;51029;51.058;13.826;2023-02-03T01:33:47;4.00;99.90
64620;DHT22;51029;51.058;13.826;2023-02-03T01:36:17;3.90;99.90
64620;DHT22;51029;51.058;13.826;2023-02-03T01:38:43;4.00;99.90
64620;DHT22;51029;51.058;13.826;2023-02-03T01:41:12;3.90;99.90
64620;DHT22;51029;51.058;13.826;2023-02-03T01:43:41;4.00;99.90
64620;DHT22;51029;51.058;13.826;2023-02-03T01:46:29;4.00;99.90
64620;DHT22;51029;51.058;13.826;2023-02-03T01:49:21;3.90;99.90
64620;DHT22;51029;51.058;13.826;2023-02-03T01:51:49;3.90;99.90
64620;DHT22;51029;51.058;13.826;2023-02-03T01:54:21;3.90;99.90
64620;DHT22;51029;51.058;13.826;2023-02-03T01:56:52;3.90;99.90
64620;DHT22;51029;51.058;13.826;2023-02-03T01:59:19;3.90;99.90
64620;DHT22;51029;51.058;13.826;2023-02-03T02:01:46;3.90;99.90
64620;DHT22;51029;51.058;13.826;2023-02-03T02:04:12;3.90;99.90
64620;DHT22;51029;51.058;13.826;2023-02-03T02:06:38;3.80;99.90
64620;DHT22;51029;51.058;13.826;2023-02-03T02:09:03;3.80;99.90
64620;DHT22;51029;51.058;13.826;2023-02-03T02:11:29;3.80;99.90
64620;DHT22;51029;51.058;13.826;2023-02-03T02:13:58;3.80;99.90
64620;DHT22;51029;51.058;13.826;2023-02-03T02:16:48;3.80;99.90
64620;DHT22;51029;51.058;13.826;2023-02-03T02:31:01;3.80;99.90
64620;DHT22;51029;51.058;13.826;2023-02-03T02:33:40;3.80;99.90
64620;DHT22;51029;51.058;13.826;2023-02-03T02:39:13;3.80;99.90
64620;DHT22;51029;51.058;13.826;2023-02-03T02:41:57;3.80;99.90
64620;DHT22;51029;51.058;13.826;2023-02-03T02:44:34;3.80;99.90
64620;DHT22;51029;51.058;13.826;2023-02-03T02:47:05;3.70;99.90
64620;DHT22;51029;51.058;13.826;2023-02-03T02:49:41;3.80;99.90
64620;DHT22;51029;51.058;13.826;2023-02-03T02:52:10;3.80;99.90
64620;DHT22;51029;51.058;13.826;2023-02-03T02:54:40;3.90;99.90
64620;DHT22;51029;51.058;13.826;2023-02-03T02:57:10;3.80;99.90
64620;DHT22;51029;51.058;13.826;2023-02-03T02:59:37;3.90;99.90
64620;DHT22;51029;51.058;13.826;2023-02-03T03:02:02;3.90;99.90
64620;DHT22;51029;51.058;13.826;2023-02-03T03:04:30;3.90;99.90
64620;DHT22;51029;51.058;13.826;2023-02-03T03:07:16;3.90;99.90
64620;DHT22;51029;51.058;13.826;2023-02-03T03:09:46;4.00;99.90
64620;DHT22;51029;51.058;13.826;2023-02-03T03:12:23;4.00;99.90
64620;DHT22;51029;51.058;13.826;2023-02-03T03:15:00;4.00;99.90
64620;DHT22;51029;51.058;13.826;2023-02-03T03:17:32;4.00;99.90
64620;DHT22;51029;51.058;13.826;2023-02-03T03:20:02;4.10;99.90
64620;DHT22;51029;51.058;13.826;2023-02-03T03:22:32;4.10;99.90
64620;DHT22;51029;51.058;13.826;2023-02-03T03:25:17;4.10;99.90
64620;DHT22;51029;51.058;13.826;2023-02-03T03:27:58;4.10;99.90
64620;DHT22;51029;51.058;13.826;2023-02-03T03:30:27;4.10;99.90
64620;DHT22;51029;51.058;13.826;2023-02-03T03:32:54;4.10;99.90
64620;DHT22;51029;51.058;13.826;2023-02-03T03:35:21;4.10;99.90
64620;DHT22;51029;51.058;13.826;2023-02-03T03:37:57;4.10;99.90
64620;DHT22;51029;51.058;13.826;2023-02-03T03:40:36;4.20;99.90
64620;DHT22;51029;51.058;13.826;2023-02-03T03:43:09;4.20;99.90
64620;DHT22;51029;51.058;13.826;2023-02-03T03:45:53;4.20;99.90
64620;DHT22;51029;51.058;13.826;2023-02-03T03:50:59;4.20;99.90
64620;DHT22;51029;51.058;13.826;2023-02-03T03:53:28;4.20;99.90
64620;DHT22;51029;51.058;13.826;2023-02-03T03:55:56;4.20;99.90
64620;DHT22;51029;51.058;13.826;2023-02-03T03:58:30;4.20;99.90
64620;DHT22;51029;51.058;13.826;2023-02-03T04:01:01;4.20;99.90
64620;DHT22;51029;51.058;13.826;2023-02-03T04:03:32;4.30;99.90
64620;DHT22;51029;51.058;13.826;2023-02-03T04:05:59;4.30;99.90
64620;DHT22;51029;51.058;13.826;2023-02-03T04:08:25;4.30;99.90
64620;DHT22;51029;51.058;13.826;2023-02-03T04:10:50;4.40;99.90
64620;DHT22;51029;51.058;13.826;2023-02-03T04:13:16;4.40;99.90
64620;DHT22;51029;51.058;13.826;2023-02-03T04:15:44;4.30;99.90
64620;DHT22;51029;51.058;13.826;2023-02-03T04:18:12;4.40;99.90
64620;DHT22;51029;51.058;13.826;2023-02-03T04:20:38;4.40;99.90
64620;DHT22;51029;51.058;13.826;2023-02-03T04:23:03;4.40;99.90
64620;DHT22;51029;51.058;13.826;2023-02-03T04:25:29;4.50;99.90
64620;DHT22;51029;51.058;13.826;2023-02-03T04:27:54;4.50;99.90
64620;DHT22;51029;51.058;13.826;2023-02-03T04:30:20;4.50;99.90
64620;DHT22;51029;51.058;13.826;2023-02-03T04:32:46;4.60;99.90
64620;DHT22;51029;51.058;13.826;2023-02-03T04:35:12;4.70;99.90
64620;DHT22;51029;51.058;13.826;2023-02-03T04:37:38;4.70;99.90
64620;DHT22;51029;51.058;13.826;2023-02-03T04:40:04;4.80;99.90
64620;DHT22;51029;51.058;13.826;2023-02-03T04:42:30;4.90;99.90
64620;DHT22;51029;51.058;13.826;2023-02-03T04:44:55;5.00;99.90
64620;DHT22;51029;51.058;13.826;2023-02-03T04:47:21;5.10;99.90
64620;DHT22;51029;51.058;13.826;2023-02-03T04:49:46;5.20;99.90
64620;DHT22;51029;51.058;13.826;2023-02-03T04:52:12;5.20;99.90
64620;DHT22;51029;51.058;13.826;2023-02-03T04:54:38;5.30;99.90
64620;DHT22;51029;51.058;13.826;2023-02-03T04:57:04;5.40;99.90
64620;DHT22;51029;51.058;13.826;2023-02-03T04:59:30;5.40;99.90
64620;DHT22;51029;51.058;13.826;2023-02-03T05:01:56;5.50;99.90
64620;DHT22;51029;51.058;13.826;2023-02-03T05:04:21;5.50;99.90
64620;DHT22;51029;51.058;13.826;2023-02-03T05:06:47;5.60;99.90
64620;DHT22;51029;51.058;13.826;2023-02-03T05:09:12;5.70;99.90
64620;DHT22;51029;51.058;13.826;2023-02-03T05:11:38;5.80;99.90
64620;DHT22;51029;51.058;13.826;2023-02-03T05:14:04;5.80;99.90
64620;DHT22;51029;51.058;13.826;2023-02-03T05:16:29;5.90;99.90
64620;DHT22;51029;51.058;13.826;2023-02-03T05:18:55;6.00;99.90
64620;DHT22;51029;51.058;13.826;2023-02-03T05:21:20;6.00;99.90
64620;DHT22;51029;51.058;13.826;2023-02-03T05:23:46;6.00;99.90
64620;DHT22;51029;51.058;13.826;2023-02-03T05:26:11;6.10;99.90
64620;DHT22;51029;51.058;13.826;2023-02-03T05:28:37;6.10;99.90
64620;DHT22;51029;51.058;13.826;2023-02-03T05:31:03;6.10;99.90
64620;DHT22;51029;51.058;13.826;2023-02-03T05:33:29;6.10;99.90
64620;DHT22;51029;51.058;13.826;2023-02-03T05:35:55;6.10;99.90
64620;DHT22;51029;51.058;13.826;2023-02-03T05:38:20;6.10;99.90
64620;DHT22;51029;51.058;13.826;2023-02-03T05:40:50;6.10;99.90
64620;DHT22;51029;51.058;13.826;2023-02-03T05:43:34;6.10;99.90
64620;DHT22;51029;51.058;13.826;2023-02-03T05:46:01;6.10;99.90
64620;DHT22;51029;51.058;13.826;2023-02-03T05:48:27;6.10;99.90
64620;DHT22;51029;51.058;13.826;2023-02-03T05:50:52;6.20;99.90
64620;DHT22;51029;51.058;13.826;2023-02-03T05:53:18;6.20;99.90
64620;DHT22;51029;51.058;13.826;2023-02-03T05:55:43;6.20;99.90
64620;DHT22;51029;51.058;13.826;2023-02-03T05:58:09;6.20;99.90
64620;DHT22;51029;51.058;13.826;2023-02-03T06:00:34;6.20;99.90
64620;DHT22;51029;51.058;13.826;2023-02-03T06:03:01;6.20;99.90
64620;DHT22;51029;51.058;13.826;2023-02-03T06:05:27;6.30;99.90
64620;DHT22;51029;51.058;13.826;2023-02-03T06:07:53;6.30;99.90
64620;DHT22;51029;51.058;13.826;2023-02-03T06:10:19;6.30;99.90
64620;DHT22;51029;51.058;13.826;2023-02-03T06:12:45;6.30;99.90
64620;DHT22;51029;51.058;13.826;2023-02-03T06:15:11;6.30;99.90
64620;DHT22;51029;51.058;13.826;2023-02-03T06:17:37;6.30;99.90
64620;DHT22;51029;51.058;13.826;2023-02-03T06:20:06;6.30;99.90
64620;DHT22;51029;51.058;13.826;2023-02-03T06:22:33;6.30;99.90
64620;DHT22;51029;51.058;13.826;2023-02-03T06:24:59;6.40;99.90
64620;DHT22;51029;51.058;13.826;2023-02-03T06:27:24;6.40;99.90
64620;DHT22;51029;51.058;13.826;2023-02-03T06:29:50;6.40;99.90
64620;DHT22;51029;51.058;13.826;2023-02-03T06:32:16;6.50;99.90
64620;DHT22;51029;51.058;13.826;2023-02-03T06:34:41;6.50;99.90
64620;DHT22;51029;51.058;13.826;2023-02-03T06:37:07;6.50;99.90
64620;DHT22;51029;51.058;13.826;2023-02-03T06:39:32;6.50;99.90
64620;DHT22;51029;51.058;13.826;2023-02-03T06:41:58;6.50;99.90
64620;DHT22;51029;51.058;13.826;2023-02-03T06:44:24;6.50;99.90
64620;DHT22;51029;51.058;13.826;2023-02-03T06:46:49;6.50;99.90
64620;DHT22;51029;51.058;13.826;2023-02-03T06:49:15;6.50;99.90
64620;DHT22;51029;51.058;13.826;2023-02-03T06:51:44;6.60;99.90
64620;DHT22;51029;51.058;13.826;2023-02-03T06:54:11;6.60;99.90
64620;DHT22;51029;51.058;13.826;2023-02-03T06:56:37;6.60;99.90
64620;DHT22;51029;51.058;13.826;2023-02-03T06:59:03;6.70;99.90
64620;DHT22;51029;51.058;13.826;2023-02-03T07:01:28;6.70;99.90
64620;DHT22;51029;51.058;13.826;2023-02-03T07:03:55;6.70;99.90
64620;DHT22;51029;51.058;13.826;2023-02-03T07:06:23;6.60;99.90
64620;DHT22;51029;51.058;13.826;2023-02-03T07:09:00;6.60;99.90
64620;DHT22;51029;51.058;13.826;2023-02-03T07:11:26;6.60;99.90
64620;DHT22;51029;51.058;13.826;2023-02-03T07:13:52;6.60;99.90
64620;DHT22;51029;51.058;13.826;2023-02-03T07:16:18;6.60;99.90
64620;DHT22;51029;51.058;13.826;2023-02-03T07:18:44;6.70;99.90
64620;DHT22;51029;51.058;13.826;2023-02-03T07:21:10;6.70;99.90
64620;DHT22;51029;51.058;13.826;2023-02-03T07:23:35;6.70;99.90
64620;DHT22;51029;51.058;13.826;2023-02-03T07:26:03;6.70;99.90
64620;DHT22;51029;51.058;13.826;2023-02-03T07:28:29;6.70;99.90
64620;DHT22;51029;51.058;13.826;2023-02-03T07:30:55;6.80;99.90
64620;DHT22;51029;51.058;13.826;2023-02-03T07:33:20;6.80;99.90
64620;DHT22;51029;51.058;13.826;2023-02-03T07:35:56;6.80;99.90
64620;DHT22;51029;51.058;13.826;2023-02-03T07:38:24;6.80;99.90
64620;DHT22;51029;51.058;13.826;2023-02-03T07:40:50;6.90;99.90
64620;DHT22;51029;51.058;13.826;2023-02-03T07:43:15;6.90;99.90
64620;DHT22;51029;51.058;13.826;2023-02-03T07:45:41;6.90;99.90
64620;DHT22;51029;51.058;13.826;2023-02-03T07:48:07;6.90;99.90
64620;DHT22;51029;51.058;13.826;2023-02-03T07:50:33;6.90;99.90
64620;DHT22;51029;51.058;13.826;2023-02-03T07:52:59;7.00;99.90
64620;DHT22;51029;51.058;13.826;2023-02-03T07:55:25;7.00;99.90
64620;DHT22;51029;51.058;13.826;2023-02-03T07:57:55;7.00;99.90
64620;DHT22;51029;51.058;13.826;2023-02-03T08:00:21;6.80;99.90
64620;DHT22;51029;51.058;13.826;2023-02-03T08:02:46;6.80;99.90
64620;DHT22;51029;51.058;13.826;2023-02-03T08:05:12;6.80;99.90
64620;DHT22;51029;51.058;13.826;2023-02-03T08:07:38;6.70;99.90
64620;DHT22;51029;51.058;13.826;2023-02-03T08:10:05;6.70;99.90
64620;DHT22;51029;51.058;13.826;2023-02-03T08:12:31;6.70;99.90
64620;DHT22;51029;51.058;13.826;2023-02-03T08:14:56;6.70;99.90
64620;DHT22;51029;51.058;13.826;2023-02-03T08:17:22;6.60;99.90
64620;DHT22;51029;51.058;13.826;2023-02-03T08:19:47;6.60;99.90
64620;DHT22;51029;51.058;13.826;2023-02-03T08:22:13;6.60;99.90
64620;DHT22;51029;51.058;13.826;2023-02-03T08:24:41;6.50;99.90
64620;DHT22;51029;51.058;13.826;2023-02-03T08:27:10;6.60;99.90
64620;DHT22;51029;51.058;13.826;2023-02-03T08:29:36;6.60;99.90
64620;DHT22;51029;51.058;13.826;2023-02-03T08:32:02;6.60;99.90
64620;DHT22;51029;51.058;13.826;2023-02-03T08:34:28;6.60;99.90
64620;DHT22;51029;51.058;13.826;2023-02-03T08:36:53;6.60;99.90
64620;DHT22;51029;51.058;13.826;2023-02-03T08:39:19;6.60;99.90
64620;DHT22;51029;51.058;13.826;2023-02-03T08:41:44;6.70;99.90
64620;DHT22;51029;51.058;13.826;2023-02-03T08:44:10;6.70;99.90
64620;DHT22;51029;51.058;13.826;2023-02-03T08:46:35;6.70;99.90
64620;DHT22;51029;51.058;13.826;2023-02-03T08:49:07;6.70;99.90
64620;DHT22;51029;51.058;13.826;2023-02-03T08:51:33;6.70;99.90
64620;DHT22;51029;51.058;13.826;2023-02-03T08:53:58;6.70;99.90
64620;DHT22;51029;51.058;13.826;2023-02-03T08:56:24;6.70;99.90
64620;DHT22;51029;51.058;13.826;2023-02-03T08:58:50;6.80;99.90
64620;DHT22;51029;51.058;13.826;2023-02-03T09:01:16;6.80;99.90
64620;DHT22;51029;51.058;13.826;2023-02-03T09:03:42;6.80;99.90
64620;DHT22;51029;51.058;13.826;2023-02-03T09:06:08;6.80;99.90
64620;DHT22;51029;51.058;13.826;2023-02-03T09:08:36;6.80;99.90
64620;DHT22;51029;51.058;13.826;2023-02-03T09:11:01;6.80;99.90
64620;DHT22;51029;51.058;13.826;2023-02-03T09:13:27;6.80;99.90
64620;DHT22;51029;51.058;13.826;2023-02-03T09:15:52;6.80;99.90
64620;DHT22;51029;51.058;13.826;2023-02-03T09:18:18;6.80;99.90
64620;DHT22;51029;51.058;13.826;2023-02-03T09:20:43;6.80;99.90
64620;DHT22;51029;51.058;13.826;2023-02-03T09:23:09;6.80;99.90
64620;DHT22;51029;51.058;13.826;2023-02-03T09:25:34;6.80;99.90
64620;DHT22;51029;51.058;13.826;2023-02-03T09:28:00;6.80;99.90
64620;DHT22;51029;51.058;13.826;2023-02-03T09:30:26;6.80;99.90
64620;DHT22;51029;51.058;13.826;2023-02-03T09:32:52;6.80;99.90
64620;DHT22;51029;51.058;13.826;2023-02-03T09:35:19;6.80;99.90
64620;DHT22;51029;51.058;13.826;2023-02-03T09:37:45;6.80;99.90
64620;DHT22;51029;51.058;13.826;2023-02-03T09:40:19;6.80;99.90
64620;DHT22;51029;51.058;13.826;2023-02-03T09:43:00;6.80;99.90
64620;DHT22;51029;51.058;13.826;2023-02-03T09:45:29;6.80;99.90
64620;DHT22;51029;51.058;13.826;2023-02-03T09:48:13;6.90;99.90
64620;DHT22;51029;51.058;13.826;2023-02-03T09:50:42;6.90;99.90
64620;DHT22;51029;51.058;13.826;2023-02-03T09:53:36;6.90;99.90
64620;DHT22;51029;51.058;13.826;2023-02-03T09:56:05;6.90;99.90
64620;DHT22;51029;51.058;13.826;2023-02-03T09:58:33;6.90;99.90
64620;DHT22;51029;51.058;13.826;2023-02-03T10:01:01;6.90;99.90
64620;DHT22;51029;51.058;13.826;2023-02-03T10:03:47;6.90;99.90
64620;DHT22;51029;51.058;13.826;2023-02-03T10:06:26;6.80;99.90
64620;DHT22;51029;51.058;13.826;2023-02-03T10:09:08;6.80;99.90
64620;DHT22;51029;51.058;13.826;2023-02-03T10:11:56;6.80;99.90
64620;DHT22;51029;51.058;13.826;2023-02-03T10:14:47;6.90;99.90
64620;DHT22;51029;51.058;13.826;2023-02-03T10:17:46;6.90;99.90
64620;DHT22;51029;51.058;13.826;2023-02-03T10:20:15;6.90;99.90
64620;DHT22;51029;51.058;13.826;2023-02-03T10:22:47;6.90;99.90
64620;DHT22;51029;51.058;13.826;2023-02-03T10:27:39;6.90;99.90
64620;DHT22;51029;51.058;13.826;2023-02-03T10:30:24;6.90;99.90
64620;DHT22;51029;51.058;13.826;2023-02-03T10:35:20;6.90;99.90
64620;DHT22;51029;51.058;13.826;2023-02-03T10:37:49;6.90;99.90
64620;DHT22;51029;51.058;13.826;2023-02-03T10:40:18;6.90;99.90
64620;DHT22;51029;51.058;13.826;2023-02-03T10:42:46;6.90;99.90
64620;DHT22;51029;51.058;13.826;2023-02-03T10:45:33;6.90;99.90
64620;DHT22;51029;51.058;13.826;2023-02-03T10:48:02;6.90;99.90
64620;DHT22;51029;51.058;13.826;2023-02-03T10:50:28;6.90;99.90
64620;DHT22;51029;51.058;13.826;2023-02-03T10:53:25;6.90;99.90
64620;DHT22;51029;51.058;13.826;2023-02-03T10:56:10;6.90;99.90
64620;DHT22;51029;51.058;13.826;2023-02-03T10:58:38;6.90;99.90
64620;DHT22;51029;51.058;13.826;2023-02-03T11:01:11;6.90;99.90
64620;DHT22;51029;51.058;13.826;2023-02-03T11:03:37;6.90;99.90
64620;DHT22;51029;51.058;13.826;2023-02-03T11:06:16;6.80;99.90
64620;DHT22;51029;51.058;13.826;2023-02-03T11:08:44;6.90;99.90
64620;DHT22;51029;51.058;13.826;2023-02-03T11:11:30;6.80;99.90
64620;DHT22;51029;51.058;13.826;2023-02-03T11:16:31;6.90;99.90
64620;DHT22;51029;51.058;13.826;2023-02-03T11:19:16;6.90;99.90
64620;DHT22;51029;51.058;13.826;2023-02-03T11:21:44;7.00;99.90
64620;DHT22;51029;51.058;13.826;2023-02-03T11:24:18;7.10;99.90
64620;DHT22;51029;51.058;13.826;2023-02-03T11:27:00;7.10;99.90
64620;DHT22;51029;51.058;13.826;2023-02-03T11:29:33;7.10;99.90
64620;DHT22;51029;51.058;13.826;2023-02-03T11:32:03;7.10;99.90
64620;DHT22;51029;51.058;13.826;2023-02-03T11:34:33;7.00;99.90
64620;DHT22;51029;51.058;13.826;2023-02-03T11:39:35;7.00;99.90
64620;DHT22;51029;51.058;13.826;2023-02-03T11:42:01;7.00;99.90
64620;DHT22;51029;51.058;13.826;2023-02-03T11:44:28;6.90;99.90
64620;DHT22;51029;51.058;13.826;2023-02-03T11:47:07;7.00;99.90
64620;DHT22;51029;51.058;13.826;2023-02-03T11:50:12;7.00;99.90
64620;DHT22;51029;51.058;13.826;2023-02-03T11:55:32;7.00;99.90
64620;DHT22;51029;51.058;13.826;2023-02-03T11:58:12;7.00;99.90
64620;DHT22;51029;51.058;13.826;2023-02-03T12:12:08;7.20;99.90
64620;DHT22;51029;51.058;13.826;2023-02-03T12:17:18;7.40;99.90
64620;DHT22;51029;51.058;13.826;2023-02-03T12:20:00;7.50;99.90
64620;DHT22;51029;51.058;13.826;2023-02-03T12:22:42;7.50;99.90
64620;DHT22;51029;51.058;13.826;2023-02-03T12:28:48;7.30;99.90
64620;DHT22;51029;51.058;13.826;2023-02-03T12:34:02;7.40;99.90
64620;DHT22;51029;51.058;13.826;2023-02-03T12:36:37;7.40;99.90
64620;DHT22;51029;51.058;13.826;2023-02-03T12:39:14;7.50;99.90
64620;DHT22;51029;51.058;13.826;2023-02-03T12:44:52;7.50;99.90
64620;DHT22;51029;51.058;13.826;2023-02-03T12:52:51;7.70;99.90
64620;DHT22;51029;51.058;13.826;2023-02-03T12:55:45;7.60;99.90
64620;DHT22;51029;51.058;13.826;2023-02-03T12:58:25;7.70;99.90
64620;DHT22;51029;51.058;13.826;2023-02-03T13:01:09;7.80;99.90
64620;DHT22;51029;51.058;13.826;2023-02-03T13:03:57;7.90;99.90
64620;DHT22;51029;51.058;13.826;2023-02-03T13:12:24;7.70;99.90
64620;DHT22;51029;51.058;13.826;2023-02-03T13:15:18;7.50;99.90
64620;DHT22;51029;51.058;13.826;2023-02-03T13:17:57;7.40;99.90
64620;DHT22;51029;51.058;13.826;2023-02-03T13:20:26;7.30;99.90
64620;DHT22;51029;51.058;13.826;2023-02-03T13:22:53;7.10;99.90
64620;DHT22;51029;51.058;13.826;2023-02-03T13:25:41;6.80;99.90
64620;DHT22;51029;51.058;13.826;2023-02-03T13:28:29;6.70;99.90
64620;DHT22;51029;51.058;13.826;2023-02-03T13:31:04;6.50;99.90
64620;DHT22;51029;51.058;13.826;2023-02-03T13:42:30;6.40;99.90
64620;DHT22;51029;51.058;13.826;2023-02-03T13:47:39;6.30;99.90
64620;DHT22;51029;51.058;13.826;2023-02-03T13:50:25;6.40;99.90
64620;DHT22;51029;51.058;13.826;2023-02-03T13:53:07;6.40;99.90
64620;DHT22;51029;51.058;13.826;2023-02-03T13:55:51;6.40;99.90
64620;DHT22;51029;51.058;13.826;2023-02-03T13:58:21;6.50;99.90
64620;DHT22;51029;51.058;13.826;2023-02-03T14:05:52;6.70;99.90
64620;DHT22;51029;51.058;13.826;2023-02-03T14:16:51;6.70;99.90
64620;DHT22;51029;51.058;13.826;2023-02-03T14:21:53;6.70;99.90
64620;DHT22;51029;51.058;13.826;2023-02-03T14:24:20;6.60;99.90
64620;DHT22;51029;51.058;13.826;2023-02-03T14:26:52;6.60;99.90
64620;DHT22;51029;51.058;13.826;2023-02-03T14:29:28;6.70;99.90
64620;DHT22;51029;51.058;13.826;2023-02-03T14:32:05;6.70;99.90
64620;DHT22;51029;51.058;13.826;2023-02-03T14:34:38;6.70;99.90
64620;DHT22;51029;51.058;13.826;2023-02-03T14:37:24;6.50;99.90
64620;DHT22;51029;51.058;13.826;2023-02-03T14:40:18;6.50;99.90
64620;DHT22;51029;51.058;13.826;2023-02-03T14:56:40;6.80;99.90
64620;DHT22;51029;51.058;13.826;2023-02-03T14:59:41;6.80;99.90
64620;DHT22;51029;51.058;13.826;2023-02-03T15:02:14;6.70;99.90
64620;DHT22;51029;51.058;13.826;2023-02-03T15:04:41;6.70;99.90
64620;DHT22;51029;51.058;13.826;2023-02-03T15:07:06;6.60;99.90
64620;DHT22;51029;51.058;13.826;2023-02-03T15:09:44;6.60;99.90
64620;DHT22;51029;51.058;13.826;2023-02-03T15:12:17;6.70;99.90
64620;DHT22;51029;51.058;13.826;2023-02-03T15:14:43;6.70;99.90
64620;DHT22;51029;51.058;13.826;2023-02-03T15:17:21;6.70;99.90
64620;DHT22;51029;51.058;13.826;2023-02-03T15:19:48;6.70;99.90
64620;DHT22;51029;51.058;13.826;2023-02-03T15:22:24;6.70;99.90
64620;DHT22;51029;51.058;13.826;2023-02-03T15:24:53;6.60;99.90
64620;DHT22;51029;51.058;13.826;2023-02-03T15:27:28;6.40;99.90
64620;DHT22;51029;51.058;13.826;2023-02-03T15:29:54;6.20;99.90
64620;DHT22;51029;51.058;13.826;2023-02-03T15:32:31;6.10;99.90
64620;DHT22;51029;51.058;13.826;2023-02-03T15:34:59;6.00;99.90
64620;DHT22;51029;51.058;13.826;2023-02-03T15:37:54;5.90;99.90
64620;DHT22;51029;51.058;13.826;2023-02-03T15:40:20;5.90;99.90
64620;DHT22;51029;51.058;13.826;2023-02-03T15:42:54;5.90;99.90
64620;DHT22;51029;51.058;13.826;2023-02-03T15:45:37;5.80;99.90
64620;DHT22;51029;51.058;13.826;2023-02-03T15:51:14;5.90;99.90
64620;DHT22;51029;51.058;13.826;2023-02-03T15:53:52;5.90;99.90
64620;DHT22;51029;51.058;13.826;2023-02-03T15:56:50;6.00;99.90
64620;DHT22;51029;51.058;13.826;2023-02-03T15:59:36;6.10;99.90
64620;DHT22;51029;51.058;13.826;2023-02-03T16:04:38;6.30;99.90
64620;DHT22;51029;51.058;13.826;2023-02-03T16:07:04;6.30;99.90
64620;DHT22;51029;51.058;13.826;2023-02-03T16:09:31;6.40;99.90
64620;DHT22;51029;51.058;13.826;2023-02-03T16:14:33;6.50;99.90
64620;DHT22;51029;51.058;13.826;2023-02-03T16:16:59;6.50;99.90
64620;DHT22;51029;51.058;13.826;2023-02-03T16:19:26;6.50;99.90
64620;DHT22;51029;51.058;13.826;2023-02-03T16:21:57;6.50;99.90
64620;DHT22;51029;51.058;13.826;2023-02-03T16:30:19;6.50;99.90
64620;DHT22;51029;51.058;13.826;2023-02-03T16:33:15;6.60;99.90
64620;DHT22;51029;51.058;13.826;2023-02-03T16:36:11;6.50;99.90
64620;DHT22;51029;51.058;13.826;2023-02-03T16:38:57;6.60;99.90
64620;DHT22;51029;51.058;13.826;2023-02-03T16:41:42;6.60;99.90
64620;DHT22;51029;51.058;13.826;2023-02-03T16:44:26;6.60;99.90
64620;DHT22;51029;51.058;13.826;2023-02-03T16:47:23;6.60;99.90
64620;DHT22;51029;51.058;13.826;2023-02-03T16:50:17;6.70;99.90
64620;DHT22;51029;51.058;13.826;2023-02-03T16:53:02;6.70;99.90
64620;DHT22;51029;51.058;13.826;2023-02-03T16:55:28;6.80;99.90
64620;DHT22;51029;51.058;13.826;2023-02-03T16:57:53;6.80;99.90
64620;DHT22;51029;51.058;13.826;2023-02-03T17:00:20;6.90;99.90
64620;DHT22;51029;51.058;13.826;2023-02-03T17:02:49;6.90;99.90
64620;DHT22;51029;51.058;13.826;2023-02-03T17:05:16;6.90;99.90
64620;DHT22;51029;51.058;13.826;2023-02-03T17:07:42;6.90;99.90
64620;DHT22;51029;51.058;13.826;2023-02-03T17:10:08;6.80;99.90
64620;DHT22;51029;51.058;13.826;2023-02-03T17:12:34;6.80;99.90
64620;DHT22;51029;51.058;13.826;2023-02-03T17:14:59;6.80;99.90
64620;DHT22;51029;51.058;13.826;2023-02-03T17:17:25;6.80;99.90
64620;DHT22;51029;51.058;13.826;2023-02-03T17:19:50;6.80;99.90
64620;DHT22;51029;51.058;13.826;2023-02-03T17:22:16;6.90;99.90
64620;DHT22;51029;51.058;13.826;2023-02-03T17:24:41;6.90;99.90
64620;DHT22;51029;51.058;13.826;2023-02-03T17:27:07;6.90;99.90
64620;DHT22;51029;51.058;13.826;2023-02-03T17:29:32;6.90;99.90
64620;DHT22;51029;51.058;13.826;2023-02-03T17:31:58;6.80;99.90
64620;DHT22;51029;51.058;13.826;2023-02-03T17:34:23;6.90;99.90
64620;DHT22;51029;51.058;13.826;2023-02-03T17:36:49;6.90;99.90
64620;DHT22;51029;51.058;13.826;2023-02-03T17:39:14;6.80;99.90
64620;DHT22;51029;51.058;13.826;2023-02-03T17:41:40;6.90;99.90
64620;DHT22;51029;51.058;13.826;2023-02-03T17:44:05;6.90;99.90
64620;DHT22;51029;51.058;13.826;2023-02-03T17:46:31;6.90;99.90
64620;DHT22;51029;51.058;13.826;2023-02-03T17:48:57;6.90;99.90
64620;DHT22;51029;51.058;13.826;2023-02-03T17:51:23;6.90;99.90